sensor_id;sensor_type;location;lat;lon;timestamp;P1;durP1;ratioP1;P2;durP2;ratioP2
1682;SDS011;13252;53.596;10.060;2022-09-04T00:00:20;2.43;;;0.90;;
1682;SDS011;13252;53.596;10.060;2022-09-04T00:02:56;4.43;;;1.60;;
1682;SDS011;13252;53.596;10.060;2022-09-04T00:05:30;2.73;;;1.07;;
1682;SDS011;13252;53.596;10.060;2022-09-04T00:08:08;5.00;;;1.10;;
1682;SDS011;13252;53.596;10.060;2022-09-04T00:10:47;2.20;;;0.97;;
1682;SDS011;13252;53.596;10.060;2022-09-04T00:13:21;8.47;;;1.27;;
1682;SDS011;13252;53.596;10.060;2022-09-04T00:15:54;4.00;;;1.10;;
1682;SDS011;13252;53.596;10.060;2022-09-04T00:18:25;3.80;;;1.10;;
1682;SDS011;13252;53.596;10.060;2022-09-04T00:20:59;3.90;;;1.23;;
1682;SDS011;13252;53.596;10.060;2022-09-04T00:23:32;2.93;;;1.10;;
1682;SDS011;13252;53.596;10.060;2022-09-04T00:26:07;2.73;;;0.97;;
1682;SDS011;13252;53.596;10.060;2022-09-04T00:28:39;4.50;;;1.00;;
1682;SDS011;13252;53.596;10.060;2022-09-04T00:31:11;5.93;;;1.67;;
1682;SDS011;13252;53.596;10.060;2022-09-04T00:33:46;3.60;;;1.10;;
1682;SDS011;13252;53.596;10.060;2022-09-04T00:36:17;3.40;;;1.00;;
1682;SDS011;13252;53.596;10.060;2022-09-04T00:38:48;2.57;;;1.03;;
1682;SDS011;13252;53.596;10.060;2022-09-04T00:41:23;2.50;;;0.90;;
1682;SDS011;13252;53.596;10.060;2022-09-04T00:47:16;4.60;;;1.13;;
1682;SDS011;13252;53.596;10.060;2022-09-04T00:50:03;6.37;;;1.73;;
1682;SDS011;13252;53.596;10.060;2022-09-04T00:52:50;3.40;;;1.17;;
1682;SDS011;13252;53.596;10.060;2022-09-04T00:55:33;2.40;;;1.23;;
1682;SDS011;13252;53.596;10.060;2022-09-04T00:58:18;3.00;;;1.13;;
1682;SDS011;13252;53.596;10.060;2022-09-04T01:00:53;3.80;;;0.80;;
1682;SDS011;13252;53.596;10.060;2022-09-04T01:06:20;2.43;;;1.13;;
1682;SDS011;13252;53.596;10.060;2022-09-04T01:09:00;2.80;;;1.20;;
1682;SDS011;13252;53.596;10.060;2022-09-04T01:11:38;2.27;;;1.07;;
1682;SDS011;13252;53.596;10.060;2022-09-04T01:14:13;3.30;;;1.20;;
1682;SDS011;13252;53.596;10.060;2022-09-04T01:16:45;4.20;;;1.30;;
1682;SDS011;13252;53.596;10.060;2022-09-04T01:19:19;5.13;;;1.20;;
1682;SDS011;13252;53.596;10.060;2022-09-04T01:21:58;3.13;;;1.30;;
1682;SDS011;13252;53.596;10.060;2022-09-04T01:24:47;2.50;;;0.90;;
1682;SDS011;13252;53.596;10.060;2022-09-04T01:27:25;4.17;;;1.07;;
1682;SDS011;13252;53.596;10.060;2022-09-04T01:29:55;4.87;;;3.03;;
1682;SDS011;13252;53.596;10.060;2022-09-04T01:32:30;5.00;;;1.60;;
1682;SDS011;13252;53.596;10.060;2022-09-04T01:35:04;2.70;;;1.03;;
1682;SDS011;13252;53.596;10.060;2022-09-04T01:37:42;3.30;;;1.53;;
1682;SDS011;13252;53.596;10.060;2022-09-04T01:40:17;2.10;;;0.80;;
1682;SDS011;13252;53.596;10.060;2022-09-04T01:43:03;2.40;;;1.00;;
1682;SDS011;13252;53.596;10.060;2022-09-04T01:45:36;3.70;;;1.27;;
1682;SDS011;13252;53.596;10.060;2022-09-04T01:48:13;2.83;;;1.30;;
1682;SDS011;13252;53.596;10.060;2022-09-04T01:50:44;5.13;;;1.30;;
1682;SDS011;13252;53.596;10.060;2022-09-04T01:53:17;4.23;;;1.20;;
1682;SDS011;13252;53.596;10.060;2022-09-04T01:55:49;2.93;;;1.57;;
1682;SDS011;13252;53.596;10.060;2022-09-04T01:58:21;9.47;;;1.67;;
1682;SDS011;13252;53.596;10.060;2022-09-04T02:00:55;3.13;;;0.93;;
1682;SDS011;13252;53.596;10.060;2022-09-04T02:03:28;2.90;;;1.00;;
1682;SDS011;13252;53.596;10.060;2022-09-04T02:06:07;2.40;;;0.97;;
1682;SDS011;13252;53.596;10.060;2022-09-04T02:08:42;3.87;;;1.10;;
1682;SDS011;13252;53.596;10.060;2022-09-04T02:11:21;2.20;;;1.00;;
1682;SDS011;13252;53.596;10.060;2022-09-04T02:14:01;4.50;;;1.30;;
1682;SDS011;13252;53.596;10.060;2022-09-04T02:16:38;2.73;;;1.13;;
1682;SDS011;13252;53.596;10.060;2022-09-04T02:19:16;2.97;;;1.30;;
1682;SDS011;13252;53.596;10.060;2022-09-04T02:21:54;3.27;;;1.03;;
1682;SDS011;13252;53.596;10.060;2022-09-04T02:24:28;3.93;;;1.10;;
1682;SDS011;13252;53.596;10.060;2022-09-04T02:27:02;2.83;;;1.00;;
1682;SDS011;13252;53.596;10.060;2022-09-04T02:29:35;4.60;;;0.90;;
1682;SDS011;13252;53.596;10.060;2022-09-04T02:32:07;5.93;;;1.00;;
1682;SDS011;13252;53.596;10.060;2022-09-04T02:34:39;3.13;;;1.20;;
1682;SDS011;13252;53.596;10.060;2022-09-04T02:37:11;5.23;;;1.20;;
1682;SDS011;13252;53.596;10.060;2022-09-04T02:39:43;4.10;;;1.20;;
1682;SDS011;13252;53.596;10.060;2022-09-04T02:42:16;2.70;;;1.13;;
1682;SDS011;13252;53.596;10.060;2022-09-04T02:44:50;2.87;;;1.13;;
1682;SDS011;13252;53.596;10.060;2022-09-04T02:47:29;2.60;;;1.10;;
1682;SDS011;13252;53.596;10.060;2022-09-04T02:50:02;2.17;;;0.90;;
1682;SDS011;13252;53.596;10.060;2022-09-04T02:52:43;3.03;;;1.00;;
1682;SDS011;13252;53.596;10.060;2022-09-04T02:55:25;5.20;;;1.00;;
1682;SDS011;13252;53.596;10.060;2022-09-04T02:58:06;3.80;;;1.40;;
1682;SDS011;13252;53.596;10.060;2022-09-04T03:00:45;4.07;;;1.27;;
1682;SDS011;13252;53.596;10.060;2022-09-04T03:03:20;5.23;;;1.43;;
1682;SDS011;13252;53.596;10.060;2022-09-04T03:05:52;2.40;;;1.03;;
1682;SDS011;13252;53.596;10.060;2022-09-04T03:08:24;4.30;;;1.10;;
1682;SDS011;13252;53.596;10.060;2022-09-04T03:11:03;4.13;;;0.80;;
1682;SDS011;13252;53.596;10.060;2022-09-04T03:13:34;2.90;;;1.40;;
1682;SDS011;13252;53.596;10.060;2022-09-04T03:16:08;6.80;;;1.50;;
1682;SDS011;13252;53.596;10.060;2022-09-04T03:18:50;2.90;;;1.57;;
1682;SDS011;13252;53.596;10.060;2022-09-04T03:21:34;2.93;;;1.37;;
1682;SDS011;13252;53.596;10.060;2022-09-04T03:24:06;3.00;;;1.23;;
1682;SDS011;13252;53.596;10.060;2022-09-04T03:26:36;2.53;;;1.10;;
1682;SDS011;13252;53.596;10.060;2022-09-04T03:29:08;4.37;;;1.60;;
1682;SDS011;13252;53.596;10.060;2022-09-04T03:31:44;3.30;;;1.50;;
1682;SDS011;13252;53.596;10.060;2022-09-04T03:34:20;3.37;;;1.00;;
1682;SDS011;13252;53.596;10.060;2022-09-04T03:37:02;2.40;;;1.10;;
1682;SDS011;13252;53.596;10.060;2022-09-04T03:39:39;3.60;;;1.10;;
1682;SDS011;13252;53.596;10.060;2022-09-04T03:42:23;5.00;;;1.20;;
1682;SDS011;13252;53.596;10.060;2022-09-04T03:44:59;5.60;;;1.37;;
1682;SDS011;13252;53.596;10.060;2022-09-04T03:47:34;5.60;;;1.50;;
1682;SDS011;13252;53.596;10.060;2022-09-04T03:50:09;4.17;;;1.50;;
1682;SDS011;13252;53.596;10.060;2022-09-04T03:52:44;3.67;;;1.40;;
1682;SDS011;13252;53.596;10.060;2022-09-04T03:55:21;2.73;;;1.27;;
1682;SDS011;13252;53.596;10.060;2022-09-04T03:58:01;3.20;;;1.57;;
1682;SDS011;13252;53.596;10.060;2022-09-04T04:00:36;4.00;;;1.50;;
1682;SDS011;13252;53.596;10.060;2022-09-04T04:03:15;3.37;;;1.30;;
1682;SDS011;13252;53.596;10.060;2022-09-04T04:05:52;6.27;;;3.10;;
1682;SDS011;13252;53.596;10.060;2022-09-04T04:08:40;4.83;;;1.40;;
1682;SDS011;13252;53.596;10.060;2022-09-04T04:11:19;2.90;;;1.40;;
1682;SDS011;13252;53.596;10.060;2022-09-04T04:14:14;4.80;;;1.40;;
1682;SDS011;13252;53.596;10.060;2022-09-04T04:16:51;3.23;;;1.47;;
1682;SDS011;13252;53.596;10.060;2022-09-04T04:19:39;5.20;;;1.43;;
1682;SDS011;13252;53.596;10.060;2022-09-04T04:22:17;4.73;;;1.37;;
1682;SDS011;13252;53.596;10.060;2022-09-04T04:25:01;5.00;;;1.43;;
1682;SDS011;13252;53.596;10.060;2022-09-04T04:27:47;6.63;;;1.30;;
1682;SDS011;13252;53.596;10.060;2022-09-04T04:30:23;2.10;;;1.07;;
1682;SDS011;13252;53.596;10.060;2022-09-04T04:32:58;2.13;;;1.10;;
1682;SDS011;13252;53.596;10.060;2022-09-04T04:35:37;2.50;;;1.20;;
1682;SDS011;13252;53.596;10.060;2022-09-04T04:38:23;6.27;;;1.70;;
1682;SDS011;13252;53.596;10.060;2022-09-04T04:41:06;3.00;;;1.63;;
1682;SDS011;13252;53.596;10.060;2022-09-04T04:43:44;4.20;;;2.00;;
1682;SDS011;13252;53.596;10.060;2022-09-04T04:46:19;3.53;;;1.47;;
1682;SDS011;13252;53.596;10.060;2022-09-04T04:52:07;5.70;;;1.80;;
1682;SDS011;13252;53.596;10.060;2022-09-04T04:54:45;2.93;;;1.20;;
1682;SDS011;13252;53.596;10.060;2022-09-04T04:57:21;3.67;;;1.37;;
1682;SDS011;13252;53.596;10.060;2022-09-04T04:59:56;2.67;;;1.43;;
1682;SDS011;13252;53.596;10.060;2022-09-04T05:02:34;4.97;;;1.63;;
1682;SDS011;13252;53.596;10.060;2022-09-04T05:05:07;4.50;;;1.30;;
1682;SDS011;13252;53.596;10.060;2022-09-04T05:07:41;13.43;;;1.90;;
1682;SDS011;13252;53.596;10.060;2022-09-04T05:10:15;4.53;;;1.40;;
1682;SDS011;13252;53.596;10.060;2022-09-04T05:12:56;3.10;;;1.37;;
1682;SDS011;13252;53.596;10.060;2022-09-04T05:15:31;4.63;;;2.07;;
1682;SDS011;13252;53.596;10.060;2022-09-04T05:18:24;2.90;;;1.40;;
1682;SDS011;13252;53.596;10.060;2022-09-04T05:20:58;2.73;;;1.37;;
1682;SDS011;13252;53.596;10.060;2022-09-04T05:23:30;3.37;;;1.83;;
1682;SDS011;13252;53.596;10.060;2022-09-04T05:26:05;6.63;;;1.90;;
1682;SDS011;13252;53.596;10.060;2022-09-04T05:28:40;7.60;;;1.40;;
1682;SDS011;13252;53.596;10.060;2022-09-04T05:31:16;3.20;;;1.30;;
1682;SDS011;13252;53.596;10.060;2022-09-04T05:33:50;3.73;;;1.40;;
1682;SDS011;13252;53.596;10.060;2022-09-04T05:36:24;3.10;;;1.23;;
1682;SDS011;13252;53.596;10.060;2022-09-04T05:39:06;4.03;;;1.50;;
1682;SDS011;13252;53.596;10.060;2022-09-04T05:41:38;3.40;;;1.40;;
1682;SDS011;13252;53.596;10.060;2022-09-04T05:44:18;3.27;;;1.50;;
1682;SDS011;13252;53.596;10.060;2022-09-04T05:46:58;3.57;;;1.37;;
1682;SDS011;13252;53.596;10.060;2022-09-04T05:49:35;3.00;;;1.57;;
1682;SDS011;13252;53.596;10.060;2022-09-04T05:55:38;4.20;;;1.87;;
1682;SDS011;13252;53.596;10.060;2022-09-04T05:58:32;5.97;;;1.73;;
1682;SDS011;13252;53.596;10.060;2022-09-04T06:01:10;4.90;;;1.40;;
1682;SDS011;13252;53.596;10.060;2022-09-04T06:06:52;2.87;;;1.50;;
1682;SDS011;13252;53.596;10.060;2022-09-04T06:09:26;3.00;;;1.40;;
1682;SDS011;13252;53.596;10.060;2022-09-04T06:12:06;4.70;;;1.37;;
1682;SDS011;13252;53.596;10.060;2022-09-04T06:14:49;5.13;;;1.30;;
1682;SDS011;13252;53.596;10.060;2022-09-04T06:17:33;4.63;;;1.20;;
1682;SDS011;13252;53.596;10.060;2022-09-04T06:20:20;4.93;;;1.60;;
1682;SDS011;13252;53.596;10.060;2022-09-04T06:23:12;7.00;;;1.30;;
1682;SDS011;13252;53.596;10.060;2022-09-04T06:25:51;9.07;;;1.50;;
1682;SDS011;13252;53.596;10.060;2022-09-04T06:28:50;2.70;;;1.40;;
1682;SDS011;13252;53.596;10.060;2022-09-04T06:31:40;2.73;;;0.90;;
1682;SDS011;13252;53.596;10.060;2022-09-04T06:34:15;2.73;;;1.00;;
1682;SDS011;13252;53.596;10.060;2022-09-04T06:36:51;3.50;;;1.50;;
1682;SDS011;13252;53.596;10.060;2022-09-04T06:39:30;3.03;;;1.13;;
1682;SDS011;13252;53.596;10.060;2022-09-04T06:42:10;2.90;;;1.53;;
1682;SDS011;13252;53.596;10.060;2022-09-04T06:44:52;4.07;;;1.60;;
1682;SDS011;13252;53.596;10.060;2022-09-04T06:47:30;5.37;;;1.30;;
1682;SDS011;13252;53.596;10.060;2022-09-04T06:50:14;3.53;;;1.60;;
1682;SDS011;13252;53.596;10.060;2022-09-04T06:52:52;8.23;;;1.77;;
1682;SDS011;13252;53.596;10.060;2022-09-04T06:55:32;5.60;;;2.00;;
1682;SDS011;13252;53.596;10.060;2022-09-04T06:58:08;4.17;;;2.70;;
1682;SDS011;13252;53.596;10.060;2022-09-04T07:00:46;4.03;;;1.80;;
1682;SDS011;13252;53.596;10.060;2022-09-04T07:06:07;3.30;;;1.30;;
1682;SDS011;13252;53.596;10.060;2022-09-04T07:08:42;4.40;;;1.70;;
1682;SDS011;13252;53.596;10.060;2022-09-04T07:11:19;3.90;;;1.77;;
1682;SDS011;13252;53.596;10.060;2022-09-04T07:14:01;3.33;;;1.37;;
1682;SDS011;13252;53.596;10.060;2022-09-04T07:16:45;3.40;;;1.83;;
1682;SDS011;13252;53.596;10.060;2022-09-04T07:19:27;3.40;;;1.60;;
1682;SDS011;13252;53.596;10.060;2022-09-04T07:22:12;3.57;;;1.70;;
1682;SDS011;13252;53.596;10.060;2022-09-04T07:25:00;5.90;;;2.00;;
1682;SDS011;13252;53.596;10.060;2022-09-04T07:27:37;4.50;;;1.60;;
1682;SDS011;13252;53.596;10.060;2022-09-04T07:30:11;7.93;;;1.67;;
1682;SDS011;13252;53.596;10.060;2022-09-04T07:32:43;4.63;;;1.70;;
1682;SDS011;13252;53.596;10.060;2022-09-04T07:35:17;15.00;;;2.67;;
1682;SDS011;13252;53.596;10.060;2022-09-04T07:37:47;2.97;;;1.80;;
1682;SDS011;13252;53.596;10.060;2022-09-04T07:40:18;7.73;;;2.00;;
1682;SDS011;13252;53.596;10.060;2022-09-04T07:42:54;6.80;;;1.80;;
1682;SDS011;13252;53.596;10.060;2022-09-04T07:45:27;7.00;;;2.17;;
1682;SDS011;13252;53.596;10.060;2022-09-04T07:47:58;4.33;;;2.07;;
1682;SDS011;13252;53.596;10.060;2022-09-04T07:50:32;8.40;;;2.43;;
1682;SDS011;13252;53.596;10.060;2022-09-04T07:53:10;4.30;;;2.00;;
1682;SDS011;13252;53.596;10.060;2022-09-04T07:55:45;6.33;;;2.27;;
1682;SDS011;13252;53.596;10.060;2022-09-04T07:58:30;3.90;;;2.03;;
1682;SDS011;13252;53.596;10.060;2022-09-04T08:01:15;6.90;;;2.40;;
1682;SDS011;13252;53.596;10.060;2022-09-04T08:03:57;4.53;;;2.40;;
1682;SDS011;13252;53.596;10.060;2022-09-04T08:06:36;6.20;;;2.10;;
1682;SDS011;13252;53.596;10.060;2022-09-04T08:09:13;6.13;;;2.40;;
1682;SDS011;13252;53.596;10.060;2022-09-04T08:11:58;4.43;;;2.10;;
1682;SDS011;13252;53.596;10.060;2022-09-04T08:14:42;5.10;;;2.07;;
1682;SDS011;13252;53.596;10.060;2022-09-04T08:17:25;18.57;;;2.70;;
1682;SDS011;13252;53.596;10.060;2022-09-04T08:20:05;5.97;;;2.90;;
1682;SDS011;13252;53.596;10.060;2022-09-04T08:22:41;5.40;;;2.87;;
1682;SDS011;13252;53.596;10.060;2022-09-04T08:25:19;4.23;;;2.20;;
1682;SDS011;13252;53.596;10.060;2022-09-04T08:27:55;5.43;;;2.60;;
1682;SDS011;13252;53.596;10.060;2022-09-04T08:30:29;4.70;;;2.33;;
1682;SDS011;13252;53.596;10.060;2022-09-04T08:36:00;6.17;;;2.80;;
1682;SDS011;13252;53.596;10.060;2022-09-04T08:38:34;4.50;;;2.57;;
1682;SDS011;13252;53.596;10.060;2022-09-04T08:44:21;3.50;;;2.40;;
1682;SDS011;13252;53.596;10.060;2022-09-04T08:47:11;3.90;;;2.40;;
1682;SDS011;13252;53.596;10.060;2022-09-04T08:50:09;4.87;;;2.80;;
1682;SDS011;13252;53.596;10.060;2022-09-04T08:55:52;4.83;;;2.17;;
1682;SDS011;13252;53.596;10.060;2022-09-04T09:05:02;4.70;;;2.73;;
1682;SDS011;13252;53.596;10.060;2022-09-04T09:10:50;6.80;;;3.20;;
1682;SDS011;13252;53.596;10.060;2022-09-04T09:13:48;6.77;;;2.83;;
1682;SDS011;13252;53.596;10.060;2022-09-04T09:16:43;4.70;;;3.23;;
1682;SDS011;13252;53.596;10.060;2022-09-04T09:19:18;7.97;;;3.10;;
1682;SDS011;13252;53.596;10.060;2022-09-04T09:22:01;4.13;;;2.77;;
1682;SDS011;13252;53.596;10.060;2022-09-04T09:30:47;6.70;;;2.70;;
1682;SDS011;13252;53.596;10.060;2022-09-04T09:33:39;5.17;;;2.73;;
1682;SDS011;13252;53.596;10.060;2022-09-04T09:36:31;4.30;;;2.20;;
1682;SDS011;13252;53.596;10.060;2022-09-04T09:39:16;4.97;;;2.70;;
1682;SDS011;13252;53.596;10.060;2022-09-04T09:42:04;4.00;;;2.30;;
1682;SDS011;13252;53.596;10.060;2022-09-04T09:44:52;4.20;;;2.57;;
1682;SDS011;13252;53.596;10.060;2022-09-04T09:47:54;4.10;;;3.10;;
1682;SDS011;13252;53.596;10.060;2022-09-04T09:51:26;6.13;;;2.60;;
1682;SDS011;13252;53.596;10.060;2022-09-04T09:57:11;4.37;;;2.50;;
1682;SDS011;13252;53.596;10.060;2022-09-04T10:00:05;4.67;;;2.20;;
1682;SDS011;13252;53.596;10.060;2022-09-04T10:12:22;4.50;;;2.70;;
1682;SDS011;13252;53.596;10.060;2022-09-04T10:15:21;7.00;;;2.80;;
1682;SDS011;13252;53.596;10.060;2022-09-04T10:18:02;6.97;;;2.60;;
1682;SDS011;13252;53.596;10.060;2022-09-04T10:20:53;4.93;;;2.70;;
1682;SDS011;13252;53.596;10.060;2022-09-04T10:23:52;5.10;;;2.70;;
1682;SDS011;13252;53.596;10.060;2022-09-04T10:26:54;3.67;;;2.23;;
1682;SDS011;13252;53.596;10.060;2022-09-04T10:29:41;3.87;;;2.07;;
1682;SDS011;13252;53.596;10.060;2022-09-04T10:32:37;5.37;;;3.20;;
1682;SDS011;13252;53.596;10.060;2022-09-04T10:35:24;5.40;;;2.63;;
1682;SDS011;13252;53.596;10.060;2022-09-04T10:37:59;5.77;;;2.73;;
1682;SDS011;13252;53.596;10.060;2022-09-04T10:40:35;6.63;;;2.70;;
1682;SDS011;13252;53.596;10.060;2022-09-04T10:43:21;3.73;;;2.37;;
1682;SDS011;13252;53.596;10.060;2022-09-04T10:46:07;9.93;;;3.23;;
1682;SDS011;13252;53.596;10.060;2022-09-04T10:49:02;8.33;;;2.70;;
1682;SDS011;13252;53.596;10.060;2022-09-04T10:54:58;6.30;;;2.40;;
1682;SDS011;13252;53.596;10.060;2022-09-04T10:57:46;4.13;;;2.47;;
1682;SDS011;13252;53.596;10.060;2022-09-04T11:00:21;4.80;;;2.57;;
1682;SDS011;13252;53.596;10.060;2022-09-04T11:03:13;3.70;;;2.33;;
1682;SDS011;13252;53.596;10.060;2022-09-04T11:05:59;4.50;;;2.40;;
1682;SDS011;13252;53.596;10.060;2022-09-04T11:09:00;3.73;;;2.27;;
1682;SDS011;13252;53.596;10.060;2022-09-04T11:11:55;8.23;;;2.13;;
1682;SDS011;13252;53.596;10.060;2022-09-04T11:17:29;4.30;;;2.23;;
1682;SDS011;13252;53.596;10.060;2022-09-04T11:20:15;4.07;;;2.53;;
1682;SDS011;13252;53.596;10.060;2022-09-04T11:23:20;3.80;;;2.33;;
1682;SDS011;13252;53.596;10.060;2022-09-04T11:32:11;4.27;;;2.70;;
1682;SDS011;13252;53.596;10.060;2022-09-04T11:35:19;6.50;;;2.40;;
1682;SDS011;13252;53.596;10.060;2022-09-04T11:38:01;5.17;;;2.40;;
1682;SDS011;13252;53.596;10.060;2022-09-04T11:40:48;7.87;;;2.80;;
1682;SDS011;13252;53.596;10.060;2022-09-04T11:46:39;5.03;;;3.00;;
1682;SDS011;13252;53.596;10.060;2022-09-04T11:49:41;4.67;;;2.50;;
1682;SDS011;13252;53.596;10.060;2022-09-04T11:52:31;6.83;;;2.57;;
1682;SDS011;13252;53.596;10.060;2022-09-04T11:58:17;8.43;;;2.67;;
1682;SDS011;13252;53.596;10.060;2022-09-04T12:00:56;5.50;;;2.63;;
1682;SDS011;13252;53.596;10.060;2022-09-04T12:03:44;7.53;;;2.80;;
1682;SDS011;13252;53.596;10.060;2022-09-04T12:06:26;4.53;;;2.87;;
1682;SDS011;13252;53.596;10.060;2022-09-04T12:09:22;5.70;;;2.37;;
1682;SDS011;13252;53.596;10.060;2022-09-04T12:14:58;4.53;;;2.87;;
1682;SDS011;13252;53.596;10.060;2022-09-04T12:20:31;10.30;;;2.50;;
1682;SDS011;13252;53.596;10.060;2022-09-04T12:23:22;5.40;;;3.00;;
1682;SDS011;13252;53.596;10.060;2022-09-04T12:26:16;5.83;;;3.20;;
1682;SDS011;13252;53.596;10.060;2022-09-04T12:31:47;3.87;;;2.30;;
1682;SDS011;13252;53.596;10.060;2022-09-04T12:34:33;4.30;;;2.93;;
1682;SDS011;13252;53.596;10.060;2022-09-04T12:37:24;4.90;;;2.80;;
1682;SDS011;13252;53.596;10.060;2022-09-04T12:40:09;4.57;;;2.70;;
1682;SDS011;13252;53.596;10.060;2022-09-04T12:42:47;9.50;;;3.27;;
1682;SDS011;13252;53.596;10.060;2022-09-04T12:45:23;4.60;;;2.90;;
1682;SDS011;13252;53.596;10.060;2022-09-04T12:47:58;9.17;;;2.87;;
1682;SDS011;13252;53.596;10.060;2022-09-04T12:50:37;9.50;;;2.63;;
1682;SDS011;13252;53.596;10.060;2022-09-04T12:55:59;6.77;;;2.50;;
1682;SDS011;13252;53.596;10.060;2022-09-04T12:58:35;4.43;;;2.77;;
1682;SDS011;13252;53.596;10.060;2022-09-04T13:01:15;7.30;;;2.63;;
1682;SDS011;13252;53.596;10.060;2022-09-04T13:03:56;5.93;;;2.93;;
1682;SDS011;13252;53.596;10.060;2022-09-04T13:06:29;6.33;;;2.70;;
1682;SDS011;13252;53.596;10.060;2022-09-04T13:09:07;6.33;;;2.90;;
1682;SDS011;13252;53.596;10.060;2022-09-04T13:11:44;3.73;;;2.10;;
1682;SDS011;13252;53.596;10.060;2022-09-04T13:17:11;5.50;;;2.93;;
1682;SDS011;13252;53.596;10.060;2022-09-04T13:19:47;6.00;;;3.10;;
1682;SDS011;13252;53.596;10.060;2022-09-04T13:22:24;4.53;;;2.50;;
1682;SDS011;13252;53.596;10.060;2022-09-04T13:24:57;6.77;;;2.70;;
1682;SDS011;13252;53.596;10.060;2022-09-04T13:27:36;5.63;;;2.40;;
1682;SDS011;13252;53.596;10.060;2022-09-04T13:30:19;4.60;;;2.63;;
1682;SDS011;13252;53.596;10.060;2022-09-04T13:33:03;8.40;;;3.23;;
1682;SDS011;13252;53.596;10.060;2022-09-04T13:35:44;3.67;;;2.30;;
1682;SDS011;13252;53.596;10.060;2022-09-04T13:44:18;4.40;;;2.73;;
1682;SDS011;13252;53.596;10.060;2022-09-04T13:47:06;7.13;;;2.53;;
1682;SDS011;13252;53.596;10.060;2022-09-04T13:49:39;9.73;;;2.47;;
1682;SDS011;13252;53.596;10.060;2022-09-04T13:52:12;5.00;;;2.70;;
1682;SDS011;13252;53.596;10.060;2022-09-04T13:54:42;5.37;;;2.47;;
1682;SDS011;13252;53.596;10.060;2022-09-04T13:57:14;6.20;;;2.60;;
1682;SDS011;13252;53.596;10.060;2022-09-04T13:59:43;6.37;;;2.37;;
1682;SDS011;13252;53.596;10.060;2022-09-04T14:02:15;3.60;;;2.30;;
1682;SDS011;13252;53.596;10.060;2022-09-04T14:04:51;7.27;;;2.53;;
1682;SDS011;13252;53.596;10.060;2022-09-04T14:07:22;9.30;;;2.97;;
1682;SDS011;13252;53.596;10.060;2022-09-04T14:09:53;4.50;;;2.00;;
1682;SDS011;13252;53.596;10.060;2022-09-04T14:12:34;3.40;;;2.20;;
1682;SDS011;13252;53.596;10.060;2022-09-04T14:15:24;3.70;;;1.80;;
1682;SDS011;13252;53.596;10.060;2022-09-04T14:18:00;6.50;;;1.97;;
1682;SDS011;13252;53.596;10.060;2022-09-04T14:20:41;8.33;;;2.60;;
1682;SDS011;13252;53.596;10.060;2022-09-04T14:23:19;5.70;;;2.60;;
1682;SDS011;13252;53.596;10.060;2022-09-04T14:25:53;7.00;;;2.27;;
1682;SDS011;13252;53.596;10.060;2022-09-04T14:28:26;4.90;;;2.50;;
1682;SDS011;13252;53.596;10.060;2022-09-04T14:31:01;5.43;;;2.63;;
1682;SDS011;13252;53.596;10.060;2022-09-04T14:33:42;3.27;;;2.00;;
1682;SDS011;13252;53.596;10.060;2022-09-04T14:36:17;5.07;;;2.60;;
1682;SDS011;13252;53.596;10.060;2022-09-04T14:38:57;7.80;;;3.87;;
1682;SDS011;13252;53.596;10.060;2022-09-04T14:41:38;7.20;;;3.93;;
1682;SDS011;13252;53.596;10.060;2022-09-04T14:44:16;4.23;;;2.80;;
1682;SDS011;13252;53.596;10.060;2022-09-04T14:46:52;9.10;;;3.63;;
1682;SDS011;13252;53.596;10.060;2022-09-04T14:49:28;4.03;;;2.30;;
1682;SDS011;13252;53.596;10.060;2022-09-04T14:51:58;10.07;;;2.47;;
1682;SDS011;13252;53.596;10.060;2022-09-04T14:54:31;5.50;;;2.60;;
1682;SDS011;13252;53.596;10.060;2022-09-04T14:57:02;4.33;;;2.50;;
1682;SDS011;13252;53.596;10.060;2022-09-04T14:59:37;4.20;;;2.50;;
1682;SDS011;13252;53.596;10.060;2022-09-04T15:02:12;4.20;;;2.57;;
1682;SDS011;13252;53.596;10.060;2022-09-04T15:04:46;4.60;;;2.53;;
1682;SDS011;13252;53.596;10.060;2022-09-04T15:07:20;4.80;;;2.47;;
1682;SDS011;13252;53.596;10.060;2022-09-04T15:10:03;4.30;;;2.47;;
1682;SDS011;13252;53.596;10.060;2022-09-04T15:12:36;6.57;;;2.43;;
1682;SDS011;13252;53.596;10.060;2022-09-04T15:15:07;7.00;;;2.57;;
1682;SDS011;13252;53.596;10.060;2022-09-04T15:17:43;4.30;;;2.40;;
1682;SDS011;13252;53.596;10.060;2022-09-04T15:20:18;5.03;;;2.70;;
1682;SDS011;13252;53.596;10.060;2022-09-04T15:22:49;4.03;;;2.20;;
1682;SDS011;13252;53.596;10.060;2022-09-04T15:25:36;5.53;;;3.30;;
1682;SDS011;13252;53.596;10.060;2022-09-04T15:28:25;8.30;;;3.50;;
1682;SDS011;13252;53.596;10.060;2022-09-04T15:31:00;5.83;;;2.30;;
1682;SDS011;13252;53.596;10.060;2022-09-04T15:33:30;4.23;;;2.40;;
1682;SDS011;13252;53.596;10.060;2022-09-04T15:36:01;5.07;;;2.10;;
1682;SDS011;13252;53.596;10.060;2022-09-04T15:38:33;3.80;;;1.63;;
1682;SDS011;13252;53.596;10.060;2022-09-04T15:41:13;4.57;;;2.43;;
1682;SDS011;13252;53.596;10.060;2022-09-04T15:43:46;3.93;;;2.10;;
1682;SDS011;13252;53.596;10.060;2022-09-04T15:46:17;4.17;;;2.73;;
1682;SDS011;13252;53.596;10.060;2022-09-04T15:48:50;5.70;;;2.00;;
1682;SDS011;13252;53.596;10.060;2022-09-04T15:51:25;5.07;;;2.87;;
1682;SDS011;13252;53.596;10.060;2022-09-04T15:54:06;4.20;;;2.33;;
1682;SDS011;13252;53.596;10.060;2022-09-04T15:56:42;4.50;;;2.40;;
1682;SDS011;13252;53.596;10.060;2022-09-04T15:59:13;5.73;;;1.93;;
1682;SDS011;13252;53.596;10.060;2022-09-04T16:01:46;4.13;;;2.23;;
1682;SDS011;13252;53.596;10.060;2022-09-04T16:04:18;3.70;;;2.20;;
1682;SDS011;13252;53.596;10.060;2022-09-04T16:06:52;7.13;;;2.00;;
1682;SDS011;13252;53.596;10.060;2022-09-04T16:09:24;4.57;;;2.73;;
1682;SDS011;13252;53.596;10.060;2022-09-04T16:11:57;6.13;;;2.90;;
1682;SDS011;13252;53.596;10.060;2022-09-04T16:14:31;7.60;;;2.20;;
1682;SDS011;13252;53.596;10.060;2022-09-04T16:17:10;5.90;;;2.03;;
1682;SDS011;13252;53.596;10.060;2022-09-04T16:19:41;5.80;;;2.40;;
1682;SDS011;13252;53.596;10.060;2022-09-04T16:22:17;4.00;;;2.30;;
1682;SDS011;13252;53.596;10.060;2022-09-04T16:24:53;3.57;;;2.20;;
1682;SDS011;13252;53.596;10.060;2022-09-04T16:27:26;7.10;;;2.20;;
1682;SDS011;13252;53.596;10.060;2022-09-04T16:29:55;5.17;;;2.63;;
1682;SDS011;13252;53.596;10.060;2022-09-04T16:32:26;3.87;;;2.10;;
1682;SDS011;13252;53.596;10.060;2022-09-04T16:34:56;5.47;;;2.23;;
1682;SDS011;13252;53.596;10.060;2022-09-04T16:37:29;7.17;;;2.57;;
1682;SDS011;13252;53.596;10.060;2022-09-04T16:40:00;3.53;;;2.20;;
1682;SDS011;13252;53.596;10.060;2022-09-04T16:42:36;4.30;;;2.37;;
1682;SDS011;13252;53.596;10.060;2022-09-04T16:45:09;5.10;;;2.67;;
1682;SDS011;13252;53.596;10.060;2022-09-04T16:47:40;5.10;;;2.53;;
1682;SDS011;13252;53.596;10.060;2022-09-04T16:50:13;5.93;;;2.27;;
1682;SDS011;13252;53.596;10.060;2022-09-04T16:52:52;9.67;;;3.80;;
1682;SDS011;13252;53.596;10.060;2022-09-04T16:55:40;9.57;;;2.40;;
1682;SDS011;13252;53.596;10.060;2022-09-04T16:58:20;8.73;;;2.87;;
1682;SDS011;13252;53.596;10.060;2022-09-04T17:01:03;4.90;;;2.83;;
1682;SDS011;13252;53.596;10.060;2022-09-04T17:03:40;5.63;;;2.57;;
1682;SDS011;13252;53.596;10.060;2022-09-04T17:06:21;3.67;;;2.50;;
1682;SDS011;13252;53.596;10.060;2022-09-04T17:08:54;6.13;;;2.97;;
1682;SDS011;13252;53.596;10.060;2022-09-04T17:11:28;4.27;;;2.87;;
1682;SDS011;13252;53.596;10.060;2022-09-04T17:14:03;6.87;;;2.60;;
1682;SDS011;13252;53.596;10.060;2022-09-04T17:16:46;8.77;;;2.87;;
1682;SDS011;13252;53.596;10.060;2022-09-04T17:19:17;4.87;;;2.90;;
1682;SDS011;13252;53.596;10.060;2022-09-04T17:22:01;7.23;;;2.63;;
1682;SDS011;13252;53.596;10.060;2022-09-04T17:25:10;5.70;;;2.57;;
1682;SDS011;13252;53.596;10.060;2022-09-04T17:28:17;8.43;;;3.30;;
1682;SDS011;13252;53.596;10.060;2022-09-04T17:31:13;9.10;;;3.17;;
1682;SDS011;13252;53.596;10.060;2022-09-04T17:33:46;5.60;;;3.07;;